x

8419317 - Wells, Me (welm1) Weather Station

12:30 - Sun 11th Dec 2016 All times are EST. -5 hours from GMT.

  • Wind
    5mph, 6mph gusts
  • Sea Temp 43°f
  • Aire Temp 16°f
  • Sea Pressure 1029.9mb
  • 8419317 - Wells, Me
  • 8419317 - Wells, Me

More Historic Weather Station data

Upgrade to MSW Pro to gain access to the past 30 days of data for over 8000 Wavebouys and Weather Stations around the globe.

Join Pro

Comparision Forecast

View Surf forecast
   
dom 12/11 12:30 5 6 mph 1029.9mb 43f 16f
12:24 3 6 mph 1029.9mb 43f 15f
12:18 3 6 mph 1029.8mb 43f 15f
12:12 3 6 mph 1029.8mb 44f 15f
12:06 2 5 mph 1029.9mb 44f 15f
12:00 2 5 mph 1029.9mb 43f 15f
sáb 12/10 11:54 3 6 mph 1030mb 43f 15f
11:48 3 6 mph 1030mb 44f 15f
11:42 2 5 mph 1030mb 44f 15f
11:36 3 5 mph 1030mb 44f 16f
11:30  -  2 mph 1030mb 44f 16f
11:24  -  1 mph 1030.1mb 44f 16f
11:18  -  2 mph 1030.1mb 44f 16f
11:12 1 2 mph 1030mb 44f 16f
11:06  -  1 mph 1030mb 44f 16f
11:00  -  2 mph 1030mb 44f 16f
10:54 1 2 mph 1030mb 44f 16f
10:48 2 5 mph 1030mb 44f 17f
10:42 2 5 mph 1029.9mb 45f 17f
10:36 3 5 mph 1029.8mb 45f 17f
10:30  -  mph 1029.8mb 45f 16f
10:24  -  mph 1029.7mb 45f 16f
10:18 2 5 mph 1029.6mb 45f 17f
10:12 2 5 mph 1029.5mb 45f 18f
10:06 3 6 mph 1029.4mb 45f 18f
10:00 3 7 mph 1029.3mb 46f 18f
9:54 5 7 mph 1029.1mb 46f 19f
9:48 5 6 mph 1029.1mb 46f 18f
9:42 5 6 mph 1029.1mb 46f 17f
9:36 2 5 mph 1029.1mb 46f 17f
9:30 2 5 mph 1029mb 46f 18f
9:24 2 5 mph 1029mb 46f 18f
9:18 5 6 mph 1029mb 46f 18f
9:12 5 6 mph 1028.9mb 46f 18f
9:06 3 5 mph 1028.9mb 46f 18f
9:00 3 6 mph 1028.9mb 46f 18f
8:54 5 6 mph 1028.9mb 46f 18f
8:48 3 6 mph 1028.9mb 46f 19f
8:42 3 5 mph 1028.9mb 46f 19f
8:36 3 6 mph 1028.9mb 46f 19f
8:30 3 5 mph 1028.9mb 46f 19f
8:24 2
mph
1028.9mb 46f 19f
8:18 1 5 mph 1028.8mb 46f 20f
8:12 2 5 mph 1028.7mb 46f 20f
8:06 3 6 mph 1028.7mb 46f 20f
8:00 5 6 mph 1028.6mb 46f 20f
7:54 6 7 mph 1028.5mb 46f 20f
7:48 6 9 mph 1028.5mb 46f 20f
7:42 6 9 mph 1028.4mb 46f 21f
7:36 6 8 mph 1028.4mb 46f 20f
7:30 6 7 mph 1028.4mb 46f 20f
7:24 6 9 mph 1028.3mb 46f 20f
7:18 5 7 mph 1028.3mb 46f 21f
7:12 5 7 mph 1028.4mb 46f 20f
7:06 5 8 mph 1028.4mb 46f 21f
7:00 5 6 mph 1028.4mb 46f 21f
6:54 3 6 mph 1028.3mb 46f 21f
6:48 5 7 mph 1028.3mb 46f 21f
6:42 5 8 mph 1028.3mb 46f 21f
6:36 6 9 mph 1028.3mb 46f 21f
6:30 6 10 mph 1028.2mb 46f 21f
6:24 7 9 mph 1028.1mb 46f 21f
6:18 7 13 mph 1028mb 46f 21f
6:12 6 8 mph 1027.9mb 46f 22f
6:06 6 8 mph 1027.9mb 46f 21f
6:00 5 8 mph 1027.8mb 46f 22f
5:54 6 10 mph 1027.7mb 46f 22f
5:48 6 9 mph 1027.6mb 46f 22f
5:42 7 11 mph 1027.5mb 46f 22f
5:36 9 14 mph 1027.4mb 46f 22f
5:30 9 13 mph 1027.3mb 46f 22f
5:24 8 14 mph 1027.2mb 46f 22f
5:18 8 14 mph 1027.1mb 46f 22f
5:12 6 14 mph 1027mb 46f 23f
5:06 8 13 mph 1026.9mb 46f 23f
5:00 9 14 mph 1026.8mb 45f 23f
4:54 14 18 mph 1026.6mb 45f 23f
4:48 10 15 mph 1026.6mb 45f 23f
4:42 9 17 mph 1026.5mb 45f 23f
4:36 10 17 mph 1026.3mb 43f 23f
4:30 11 17 mph 1026.2mb 42f 24f
4:24 8 17 mph 1026.2mb 42f 24f
4:18 9 13 mph 1026mb 42f 24f
4:12 9 17 mph 1025.9mb 42f 24f
4:06 9 15 mph 1025.8mb 41f 24f
4:00 9 17 mph 1025.7mb 41f 24f
3:54 11 15 mph 1025.6mb 41f 24f
3:48 10 14 mph 1025.5mb 41f 25f
3:42 7 11 mph 1025.5mb 41f 25f
3:36 9 15 mph 1025.4mb 40f 25f
3:30 9 16 mph 1025.3mb 40f 25f
3:24 14 17 mph 1025.1mb 40f 25f
3:18 9 14 mph 1025.1mb 40f 25f
3:12 10 20 mph 1025mb 40f 25f
3:06 11 16 mph 1024.9mb 40f 25f
3:00 9 16 mph 1024.8mb 40f 26f
2:54 10 16 mph 1024.7mb 40f 26f
2:48 10 17 mph 1024.5mb 41f 26f
2:42 9 13 mph 1024.4mb 41f 26f
2:36 10 16 mph 1024.4mb 42f 26f
2:30 13 18 mph 1024.2mb 42f 25f
2:24 13 20 mph 1024.2mb 42f 25f
2:18 13 21 mph 1024mb 42f 25f
2:12 10 18 mph 1023.9mb 42f 26f
2:06 13 17 mph 1023.8mb 42f 25f
2:00 11 16 mph 1023.7mb 42f 26f
1:54 10 15 mph 1023.8mb 42f 26f
1:48 10 16 mph 1023.7mb 42f 26f
1:42 11 17 mph 1023.7mb 42f 26f
1:36 7 15 mph 1023.7mb 42f 26f
1:30 8 17 mph 1023.8mb 42f 26f
1:24 10 14 mph 1023.8mb 42f 26f
1:18 9 13 mph 1023.7mb 42f 26f
1:12 7 16 mph 1023.7mb 42f 26f
1:06 13 17 mph 1023.6mb 43f 26f
1:00 9 17 mph 1023.6mb 43f 26f
12:54 10 21 mph 1023.6mb 43f 26f
12:48 14 17 mph 1023.6mb 43f 26f
12:42 14 20 mph 1023.6mb 43f 25f
12:36 11 18 mph 1023.6mb 43f 26f
12:30 13 21 mph 1023.7mb 43f 25f
12:24 14 21 mph 1023.7mb 43f 25f
12:18 10 16 mph 1023.8mb 43f 25f
12:12 14 18 mph 1023.8mb 44f 25f
12:06 11 16 mph 1023.8mb 44f 25f
11:54 11 20 mph 1023.9mb 44f 25f
11:48 9 15 mph 1023.9mb 44f 25f
11:42 15 21 mph 1023.9mb 44f 25f
11:36 11 17 mph 1024mb 44f 25f
11:30 9 15 mph 1024mb 44f 25f
11:24 10 20 mph 1024mb 44f 24f
11:18 14 21 mph 1024mb 44f 24f
11:12 9 16 mph 1024.1mb 44f 24f
11:06 13 18 mph 1024.2mb 44f 24f
11:00 13 17 mph 1024.2mb 44f 24f
10:54 10 22 mph 1024.3mb 44f 24f
10:48 17 21 mph 1024.2mb 44f 24f
10:42 10 20 mph 1024.4mb 45f 24f
10:36 16 23 mph 1024.4mb 45f 24f
10:30 13 16 mph 1024.4mb 45f 24f
10:24 11 16 mph 1024.5mb 45f 24f
10:18 9 17 mph 1024.6mb 45f 24f
10:12 11 17 mph 1024.7mb 45f 24f
10:06 11 16 mph 1024.8mb 46f 24f
10:00 9 16 mph 1024.9mb 46f 24f
9:54 11 18 mph 1024.9mb 46f 23f
9:48 16 21 mph 1024.9mb 46f 23f
9:42 13 17 mph 1025mb 46f 23f
9:36 10 18 mph 1024.9mb 46f 23f
9:30 10 17 mph 1024.9mb 46f 23f
9:24 11 20 mph 1024.9mb 46f 22f
9:18 11 18 mph 1024.9mb 46f 23f
9:12 11 18 mph 1024.8mb 46f 22f
9:06 7 20 mph 1024.8mb 46f 23f
9:00 9 16 mph 1024.7mb 46f 22f
8:54 7 10 mph 1024.7mb 46f 22f
8:48 7 9 mph 1024.7mb 46f 22f
8:42 7 10 mph 1024.7mb 46f 21f
8:36 8 10 mph 1024.6mb 46f 21f
8:30 5 7 mph 1024.5mb 46f 21f
8:24 3 6 mph 1024.5mb 46f 20f
8:18 3 6 mph 1024.5mb 46f 20f
8:12 3 5 mph 1024.5mb 46f 19f
8:06 3 5 mph 1024.5mb 46f 19f
8:00 5 6 mph 1024.4mb 46f 19f
7:54 3 5 mph 1024.4mb 46f 20f
7:48 2 5 mph 1024.3mb 46f 20f
7:42 5 6 mph 1024.2mb 46f 19f
7:36 3
mph
1024.1mb 46f 20f
7:30 2 3 mph 1024.1mb 46f 19f
7:24 2 3 mph 1024mb 46f 19f
7:18 3
mph
1023.9mb 46f 19f
7:12 3 5 mph 1023.9mb 46f 18f
7:06 3 6 mph 1023.9mb 46f 18f
7:00 5 6 mph 1023.9mb 46f 18f
6:54 3 6 mph 1023.9mb 46f 18f
6:48 3 6 mph 1023.7mb 46f 18f
6:42 2 5 mph 1023.6mb 46f 18f
6:36 3 5 mph 1023.6mb 46f 18f
6:30 2 3 mph 1023.4mb 46f 18f
6:24 2 5 mph 1023.3mb 46f 18f
6:18 3 6 mph 1023.2mb 46f 19f
6:12 3 5 mph 1023.1mb 46f 19f
6:06 3 5 mph 1023mb 46f 19f
6:00 2 6 mph 1022.9mb 46f 19f
5:54 3 7 mph 1022.9mb 46f 19f
5:48 2 6 mph 1023mb 46f 19f
5:42 6 7 mph 1023mb 46f 19f
5:36 5 8 mph 1022.9mb 46f 19f
5:30 6 8 mph 1022.8mb 46f 19f
5:24 5 7 mph 1022.8mb 46f 19f
5:18 6 9 mph 1022.7mb 46f 19f
5:12 5 9 mph 1022.6mb 46f 19f
5:06 6 8 mph 1022.6mb 46f 19f
5:00 3 9 mph 1022.6mb 46f 19f
4:54 8 10 mph 1022.6mb 46f 19f
4:48 5 6 mph 1022.6mb 46f 19f
4:42 3 6 mph 1022.6mb 46f 19f
4:36 6 10 mph 1022.5mb 46f 19f
4:30 5 8 mph 1022.3mb 45f 19f
4:24 7 10 mph 1022.1mb 45f 19f
4:18 6 11 mph 1022.2mb 45f 19f
4:12 8 10 mph 1022.1mb 45f 19f
4:06 8 13 mph 1022mb 45f 19f
4:00 9 11 mph 1022mb 45f 19f
3:54 8 11 mph 1022.1mb 44f 19f
3:48 7 13 mph 1022.1mb 42f 20f
3:42 10 16 mph 1022mb 42f 20f
3:36 8 11 mph 1022.2mb 42f 20f
3:30 7 10 mph 1022.1mb 42f 20f
3:24 6 13 mph 1022.1mb 42f 20f
3:18 7 11 mph 1022.1mb 42f 20f
3:12 9 13 mph 1022mb 42f 20f
3:06 5 6 mph 1022.1mb 41f 20f
3:00 6 10 mph 1022mb 40f 20f
2:54 7 9 mph 1022mb 40f 20f
2:48 9 14 mph 1021.8mb 40f 21f
2:42 11 18 mph 1021.6mb 39f 21f
2:36 13 18 mph 1021.4mb 39f 21f
2:30 15 24 mph 1021.2mb 39f 21f
2:24 14 20 mph 1021.2mb 39f 21f
2:18 13 20 mph 1021.2mb 40f 21f
2:12 11 16 mph 1021.3mb 40f 21f
2:06 11 18 mph 1021.3mb 40f 22f
2:00 10 23 mph 1021.2mb 42f 22f
1:54 14 18 mph 1021mb 42f 22f
1:48 9 17 mph 1021.1mb 43f 22f
1:42 8 17 mph 1021.1mb 43f 22f
1:36 14 20 mph 1020.9mb 43f 22f
1:30 15 21 mph 1020.7mb 43f 23f
1:24 17 22 mph 1020.4mb 43f 23f
1:18 16 22 mph 1020.4mb 43f 23f
1:12 14 21 mph 1020.3mb 43f 23f
1:06 10 21 mph 1020.4mb 43f 23f
1:00 13 21 mph 1020.4mb 43f 23f
12:54 15 20 mph 1020.4mb 43f 23f
12:48 8 20 mph 1020.4mb - -
12:42 14 22 mph 1020.5mb - -
12:36 15 25 mph 1020.3mb - -
12:30 13 23 mph 1020.2mb 44f 24f
12:24 15 22 mph 1020.2mb 44f 24f
12:18 11 17 mph 1020.3mb 44f 24f
12:12 9 13 mph 1020.3mb 44f 24f
12:06 11 16 mph 1020.3mb 44f 24f
12:00 11 17 mph 1020.3mb 44f 24f
vie 12/09 11:54 8 16 mph 1020.3mb 44f 24f
11:48 7 13 mph 1020.3mb 44f 24f
11:42 9 14 mph 1020.1mb 44f 24f
11:36 5 10 mph 1020.1mb 44f 24f
11:30 6 11 mph 1020.2mb 45f 24f
11:24 5 10 mph 1020.1mb 45f 24f
11:18 8 14 mph 1019.9mb 45f 24f
11:12 13 16 mph 1019.8mb 45f 24f
11:06 10 17 mph 1019.8mb 45f 24f
11:00 13 21 mph 1019.8mb 45f 25f
10:54 13 23 mph 1019.7mb 45f 25f
10:48 15 21 mph 1019.7mb 45f 25f
10:42 15 22 mph 1019.7mb 45f 25f
10:36 13 21 mph 1019.9mb 45f 25f
10:30 10 17 mph 1020mb 45f 25f
10:24 14 22 mph 1019.8mb 45f 25f
10:18 13 16 mph 1019.8mb 45f 25f
10:12 10 14 mph 1019.8mb 46f 25f
10:06 8 15 mph 1019.8mb 46f 25f
10:00 11 16 mph 1019.7mb 46f 25f
9:54 8 20 mph 1019.7mb 46f 25f
9:48 8 13 mph 1019.6mb 46f 25f
9:42 6 13 mph 1019.7mb 46f 25f
9:36 8 11 mph 1019.7mb 46f 25f
9:30 6 9 mph 1019.6mb 46f 25f
9:24 8 14 mph 1019.6mb 46f 25f
9:18 9 15 mph 1019.5mb 46f 25f
9:12 10 16 mph 1019.3mb 47f 25f
9:06 10 14 mph 1019.3mb 47f 25f
9:00 8 14 mph 1019.3mb 47f 25f
8:54 6 14 mph 1019.2mb 47f 26f
8:48 6 13 mph 1019.1mb 47f 26f
8:42 10 23 mph 1018.9mb 47f 26f
8:36 14 21 mph 1018.7mb 47f 26f
8:30 11 15 mph 1018.9mb 47f 26f
8:24 11 17 mph 1018.7mb 47f 26f
8:18 9 20 mph 1018.7mb 47f 26f
8:12 11 18 mph 1018.7mb 47f 26f
8:06 11 17 mph 1018.8mb 47f 26f
8:00 13 21 mph 1018.6mb 47f 26f
7:54 10 21 mph 1018.6mb 47f 26f
7:48 14 21 mph 1018.5mb 47f 26f
7:42 13 25 mph 1018.5mb 47f 26f
7:36 11 18 mph 1018.5mb 47f 26f
7:30 10 16 mph 1018.4mb 47f 26f
7:24 9 15 mph 1018.5mb 47f 26f
7:18 11 17 mph 1018.5mb 47f 27f
7:12 10 17 mph 1018.5mb 47f 27f
7:06 11 20 mph 1018.3mb 47f 27f
7:00 14 20 mph 1018.1mb 47f 27f
6:54 10 17 mph 1018.2mb 47f 27f
6:48 14 21 mph 1018.2mb 47f 27f
6:42 13 20 mph 1018.3mb 47f 27f
6:36 13 20 mph 1018.2mb 47f 27f
6:30 11 22 mph 1018mb 47f 27f
6:24 13 20 mph 1017.9mb 47f 27f
6:18 11 20 mph 1017.8mb 47f 27f
6:12 13 20 mph 1017.6mb 47f 27f
6:06 14 24 mph 1017.6mb 47f 27f
6:00 14 25 mph 1017.5mb 47f 28f
5:54 17 29 mph 1017.3mb 47f 28f
5:48 11 24 mph 1017.4mb 47f 28f
5:42 14 23 mph 1017.3mb 47f 28f
5:36 17 26 mph 1017.1mb 47f 28f
5:30 13 29 mph 1017mb 47f 28f
5:24 15 22 mph 1016.9mb 47f 28f
5:18 14 25 mph 1016.8mb 47f 28f
5:12 14 24 mph 1016.5mb 47f 28f
5:06 14 22 mph 1016.4mb 47f 28f
5:00 18 28 mph 1016.2mb 47f 28f
4:54 18 26 mph 1016.2mb 47f 28f
4:48 23 33 mph 1016.1mb 47f 28f
4:42 21 25 mph 1016.1mb 47f 29f
4:36 20 29 mph 1015.9mb 47f 29f
4:30 13 23 mph 1015.9mb 47f 29f
4:24 14 28 mph 1015.8mb 47f 29f
4:18 14 25 mph 1015.7mb 47f 29f
4:12 14 21 mph 1015.7mb 47f 29f
4:06 11 24 mph 1015.6mb 47f 29f
4:00 14 31 mph 1015.4mb 47f 29f
3:54 17 25 mph 1015.2mb 46f 29f
3:48 15 22 mph 1015.2mb 46f 29f
3:42 15 25 mph 1015.1mb 46f 29f
3:36 15 28 mph 1015.1mb 45f 29f
3:30 15 30 mph 1015mb 44f 30f
3:24 15 25 mph 1014.9mb 44f 30f
3:18 13 22 mph 1014.9mb 44f 30f
3:12 14 30 mph 1014.9mb 44f 30f
3:06 17 30 mph 1014.6mb 44f 30f
3:00 20 32 mph 1014.5mb 43f 30f
2:54 16 25 mph 1014.5mb 42f 30f
2:48 13 21 mph 1014.4mb 42f 31f
2:42 15 23 mph 1014.3mb 42f 31f
2:36 14 29 mph 1014.1mb 42f 31f
2:30 14 23 mph 1013.9mb 42f 31f
2:24 11 17 mph 1013.8mb 42f 31f
2:18 11 20 mph 1013.8mb 42f 31f
2:12 16 22 mph 1013.7mb 42f 31f
2:06 17 23 mph 1013.4mb 42f 31f
2:00 18 25 mph 1013.3mb 42f 31f
1:54 15 24 mph 1013.4mb 42f 31f
1:48 18 24 mph 1013.2mb 42f 31f
1:42 14 20 mph 1013.3mb 43f 31f
1:36 15 26 mph 1013.2mb 43f 31f
1:30 15 26 mph 1013.1mb 44f 31f
1:24 14 31 mph 1013.1mb 44f 32f
1:18 14 23 mph 1013mb 44f 31f
1:12 16 25 mph 1012.8mb 44f 31f
1:06 18 26 mph 1012.8mb 44f 31f
1:00 18 31 mph 1012.8mb 44f 31f
12:54 11 21 mph 1012.8mb 44f 31f
12:48 11 21 mph 1012.9mb 44f 31f
12:42 15 28 mph 1012.8mb 44f 31f
12:36 20 28 mph 1012.7mb 44f 31f
12:30 18 30 mph 1012.7mb 44f 31f
12:24 22 32 mph 1012.6mb 44f 30f
12:18 15 31 mph 1012.6mb 44f 31f
12:12 16 28 mph 1012.6mb 44f 31f
12:06 20 28 mph 1012.7mb 44f 31f
12:00 15 30 mph 1012.9mb 45f 31f
11:54 15 31 mph 1013mb 45f 31f
11:48 23 33 mph 1013mb 45f 31f
11:42 18 36 mph 1012.9mb 45f 31f
11:36 22 32 mph 1012.8mb 45f 31f
11:30 18 32 mph 1012.7mb 45f 31f
11:24 20 29 mph 1012.6mb 45f 31f
11:18 15 22 mph 1012.6mb 45f 32f
11:12 16 29 mph 1012.6mb 45f 32f
11:06 16 26 mph 1012.6mb 45f 31f
11:00 20 31 mph 1012.6mb 45f 31f
10:54 18 26 mph 1012.6mb 45f 31f
10:48 21 30 mph 1012.6mb 45f 31f
10:42 20 28 mph 1012.5mb 46f 31f
10:36 14 28 mph 1012.7mb 46f 32f
10:30 14 28 mph 1012.6mb 46f 32f
10:24 20 29 mph 1012.6mb 46f 31f
10:18 18 24 mph 1012.5mb 46f 31f
10:12 17 26 mph 1012.5mb 46f 31f
10:06 17 28 mph 1012.4mb 46f 32f
10:00 16 25 mph 1012.4mb 46f 31f
9:54 18 29 mph 1012.3mb 46f 31f
9:48 23 33 mph 1012.1mb 46f 31f
9:42 15 26 mph 1012.1mb 46f 31f
9:36 23 37 mph 1012.1mb 46f 31f
9:30 21 28 mph 1011.9mb 47f 31f
9:24 21 28 mph 1011.9mb 47f 31f
9:18 18 28 mph 1011.8mb 47f 31f
9:12 16 25 mph 1011.8mb 47f 31f
9:06 18 25 mph 1011.7mb 47f 31f
9:00 16 22 mph 1011.8mb 47f 31f
8:54 14 21 mph 1011.8mb 47f 31f
8:48 15 23 mph 1011.7mb 47f 31f
8:42 14 22 mph 1011.6mb 47f 31f
8:36 14 18 mph 1011.5mb 47f 31f
8:30 11 22 mph 1011.5mb 47f 31f
8:24 13 22 mph 1011.4mb 47f 31f
8:18 10 22 mph 1011.4mb 47f 31f
8:12 13 21 mph 1011.4mb 47f 31f
8:06 10 16 mph 1011.4mb 47f 30f
8:00 11 17 mph 1011.3mb 47f 30f
7:54 13 20 mph 1011.3mb 47f 30f
7:48 14 21 mph 1011.3mb 47f 30f
7:42 9 16 mph 1011.1mb 47f 30f
7:36 14 21 mph 1010.9mb 47f 31f
7:30 7 14 mph 1011mb 47f 30f
7:24 10 15 mph 1010.9mb 47f 31f
7:18 14 21 mph 1010.9mb 47f 31f
7:12 9 18 mph 1010.9mb 47f 31f
7:06 10 18 mph 1010.9mb 47f 31f
7:00 10 16 mph 1010.7mb 47f 31f
6:54 14 22 mph 1010.5mb 47f 31f
6:48 9 16 mph 1010.4mb 47f 31f
6:42 13 16 mph 1010.3mb 47f 31f
6:36 9 14 mph 1010.2mb 47f 30f
6:30 9 14 mph 1010.2mb 47f 30f
6:24 7 9 mph 1010.1mb 47f 30f
6:18 6 11 mph 1010.1mb 47f 30f
6:12 6 14 mph 1010mb 47f 30f
6:06 9 13 mph 1009.9mb 47f 31f
6:00 6 9 mph 1009.8mb 47f 30f
5:54 6 9 mph 1009.7mb 47f 31f
5:48 6 9 mph 1009.6mb 47f 31f
5:42 7 11 mph 1009.4mb 47f 31f
5:36 7 11 mph 1009.3mb 47f 31f
5:30 9 17 mph 1009.2mb 47f 31f
5:24 7 14 mph 1009.2mb 47f 31f
5:18 8 13 mph 1009mb 47f 31f
5:12 7 14 mph 1008.9mb 47f 31f
5:06 6 10 mph 1008.9mb 47f 30f
5:00 6 10 mph 1008.9mb 47f 30f
4:54 5 11 mph 1008.9mb 47f 30f
4:48 7 10 mph 1008.7mb 47f 30f
4:42 5 9 mph 1008.7mb 47f 30f
4:36 6 10 mph 1008.6mb 47f 31f
4:30 6 11 mph 1008.5mb 47f 31f
4:24 7 11 mph 1008.3mb 47f 31f
4:18 8 14 mph 1008.3mb 47f 31f
4:12 9 13 mph 1008.2mb 47f 31f
4:06 10 14 mph 1008mb 47f 31f
4:00 9 14 mph 1008mb 47f 31f
3:54 8 11 mph 1008mb 47f 31f
3:48 8 13 mph 1008.1mb 47f 31f
3:42 7 11 mph 1008mb 47f 31f
3:36 8 13 mph 1008mb 47f 31f
3:30 9 15 mph 1007.9mb 47f 31f
3:24 7 13 mph 1008mb 47f 31f
3:18 6 11 mph 1008mb 47f 31f
3:12 5 10 mph 1008mb 47f 31f
3:06 6 13 mph 1008.1mb 46f 31f
3:00 6 14 mph 1008mb 46f 31f
2:54 8 11 mph 1008mb 45f 31f
2:48 7 10 mph 1008mb 45f 31f
2:42 6 13 mph 1007.9mb 44f 31f
2:36 7 13 mph 1007.9mb 44f 31f
2:30 7 14 mph 1007.9mb 44f 31f
2:24 7 15 mph 1007.9mb 44f 31f
2:18 9 14 mph 1008mb 44f 31f
2:12 8 14 mph 1008mb 43f 31f
2:06 9 14 mph 1008mb 43f 32f
2:00 10 15 mph 1007.9mb 43f 32f
1:54 9 14 mph 1007.9mb 43f 31f
1:48 9 17 mph 1007.9mb 43f 32f
1:42 10 16 mph 1007.9mb 43f 32f
1:36 10 16 mph 1007.9mb 43f 32f
1:30 10 18 mph 1007.9mb 43f 32f
1:24 9 16 mph 1007.9mb 43f 32f
1:18 9 16 mph 1007.8mb 43f 32f
1:12 10 16 mph 1007.8mb 43f 32f
1:06 8 14 mph 1007.8mb 44f 32f
1:00 9 16 mph 1007.8mb 44f 32f
12:54 8 11 mph 1007.8mb 44f 32f
12:48 7 11 mph 1007.9mb - -
12:42 5 13 mph 1007.9mb - -
12:36 6 10 mph 1008mb - -
12:30 7 13 mph 1008mb 44f 31f
12:24 7 11 mph 1008mb 44f 32f
12:18 6 11 mph 1008mb 44f 31f
12:12 7 11 mph 1008mb 44f 31f
12:06 5 8 mph 1008mb 45f 31f
12:00 6 7 mph 1008mb 45f 31f
jue 12/08 11:54 6 7 mph 1008mb 45f 31f
11:48 6 7 mph 1008.1mb 45f 31f
11:42 6 7 mph 1008.1mb 45f 32f
11:36 5 6 mph 1008.1mb 45f 32f
11:30 5 6 mph 1008.1mb 45f 32f
11:24 3 6 mph 1008.2mb 45f 32f
11:18 5 8 mph 1008.2mb 45f 33f
11:12 5 6 mph 1008.2mb 45f 33f
11:06 3 6 mph 1008.1mb 45f 33f
11:00  -  6 mph 1008.2mb 45f 33f
10:54 3 8 mph 1008.2mb 45f 33f
10:48 3 7 mph 1008.2mb 45f 33f
10:42 6 9 mph 1008.2mb 45f 33f
10:36 6 9 mph 1008.2mb 45f 33f
10:30 5 7 mph 1008.2mb 45f 33f
10:24 5 8 mph 1008.2mb 45f 33f
10:18 6 11 mph 1008.1mb 45f 33f
10:12 3 10 mph 1008.1mb 45f 33f
10:06 5 9 mph 1008mb 45f 33f
10:00 9 14 mph 1007.9mb 46f 34f
9:54 8 15 mph 1007.9mb 46f 33f
9:48 7 13 mph 1007.9mb 46f 33f
9:42 8 13 mph 1007.9mb 46f 33f
9:36 9 15 mph 1007.8mb 46f 33f
9:30 6 8 mph 1007.9mb 46f 33f
9:24 6 7 mph 1007.9mb 46f 33f
9:18 5 8 mph 1007.9mb 46f 33f
9:12 6 9 mph 1008mb 46f 34f
9:06 7 11 mph 1008mb 46f 34f
9:00 8 14 mph 1008mb 46f 35f
8:54 8 16 mph 1008.1mb 46f 35f
8:48 8 14 mph 1008.2mb 46f 35f
8:42 8 17 mph 1008.2mb 46f 35f
8:36 11 17 mph 1008.1mb 46f 35f
8:30 8 13 mph 1008.2mb 46f 35f
8:24 8 11 mph 1008.2mb 46f 35f
8:18 8 14 mph 1008.2mb 46f 35f
8:12 6 14 mph 1008.1mb 46f 35f
8:06 8 14 mph 1008.1mb 46f 35f
8:00 8 14 mph 1008.1mb 46f 35f
7:54 9 13 mph 1008mb 46f 35f
7:48 9 13 mph 1008mb 46f 36f
7:42 8 13 mph 1007.9mb 46f 36f
7:36 8 11 mph 1007.9mb 46f 36f
7:30 9 13 mph 1007.9mb 46f 36f
7:24 8 13 mph 1007.9mb 46f 36f
7:18 6 14 mph 1007.9mb 46f 36f
7:12 9 13 mph 1007.9mb 46f 36f
7:06 8 13 mph 1007.9mb 46f 36f
7:00 8 13 mph 1007.9mb 46f 36f
6:54 8 11 mph 1007.9mb 46f 36f
6:48 8 14 mph 1007.9mb 46f 36f
6:42 9 14 mph 1007.9mb 46f 36f
6:36 7 11 mph 1008mb 46f 36f
6:30 5 8 mph 1007.9mb 46f 36f
6:24 5 7 mph 1007.9mb 46f 37f
6:18 5 8 mph 1007.9mb 46f 37f
6:12 6 9 mph 1007.8mb 46f 37f
6:06 7 11 mph 1007.7mb 46f 38f
6:00 9 13 mph 1007.7mb 46f 38f
5:54 6 8 mph 1007.7mb 46f 37f
5:48 3 7 mph 1007.8mb 46f 37f
5:42 5 7 mph 1007.7mb 46f 37f
5:36 3 6 mph 1007.6mb 46f 37f
5:30 3 7 mph 1007.6mb 46f 37f
5:24 6 8 mph 1007.6mb 46f 38f
5:18 5 9 mph 1007.5mb 46f 38f
5:12 3 6 mph 1007.6mb 46f 38f
5:06 3 7 mph 1007.5mb 47f 38f
5:00 3 5 mph 1007.5mb 46f 38f
4:54 3 6 mph 1007.4mb 46f 38f
4:48 3 6 mph 1007.3mb 46f 38f
4:42 5 10 mph 1007.3mb 46f 39f
4:36 8 13 mph 1007.3mb 46f 39f
4:30 6 10 mph 1007.4mb 46f 39f
4:24 6 10 mph 1007.3mb 46f 39f
4:18 6 9 mph 1007.4mb 46f 39f
4:12 9 13 mph 1007.4mb 46f 39f
4:06 6 9 mph 1007.5mb 46f 39f
4:00 7 9 mph 1007.6mb 46f 40f
3:54 6 9 mph 1007.6mb 46f 40f
3:48 7 11 mph 1007.6mb 46f 40f
3:42 6 9 mph 1007.5mb 46f 40f
3:36 6 9 mph 1007.4mb 46f 40f
3:30 3 8 mph 1007.4mb 46f 40f
3:24 6 9 mph 1007.4mb 46f 40f
3:18 7 11 mph 1007.4mb 46f 40f
3:12 5 7 mph 1007.4mb 46f 41f
3:06 5 7 mph 1007.4mb 46f 41f
3:00 5 9 mph 1007.3mb 46f 41f
2:54 7 11 mph 1007.3mb 46f 41f
2:48 6 13 mph 1007.4mb 46f 41f
2:42 6 10 mph 1007.4mb 46f 41f
2:36 9 13 mph 1007.3mb 46f 41f
2:30 7 13 mph 1007.4mb 46f 42f
2:24 8 13 mph 1007.3mb 46f 42f
2:18 6 11 mph 1007.4mb 46f 42f
2:12 7 14 mph 1007.4mb 45f 42f
2:06 9 13 mph 1007.4mb 44f 42f
2:00 6 11 mph 1007.4mb 44f 42f
1:54 6 10 mph 1007.4mb 44f 42f
1:48 7 11 mph 1007.5mb 44f 42f
1:42 7 10 mph 1007.5mb 43f 42f
1:36 7 11 mph 1007.6mb 43f 42f
1:30 8 11 mph 1007.5mb 43f 42f
1:24 7 13 mph 1007.7mb 43f 41f
1:18 9 13 mph 1007.7mb 43f 41f
1:12 7 11 mph 1007.8mb 43f 42f
1:06 5 9 mph 1007.9mb 43f 42f
1:00 6 9 mph 1007.9mb 43f 42f
12:54 9 11 mph 1007.9mb 44f 42f
12:48 5 10 mph 1008mb 44f 42f
12:42 6 11 mph 1008mb 44f 42f
12:36 7 13 mph 1008.2mb 44f 42f
12:30 10 16 mph 1008.3mb 44f 42f
12:24 7 11 mph 1008.4mb 44f 42f
12:18 8 11 mph 1008.5mb 44f 42f
12:12 6 13 mph 1008.6mb 44f 42f
12:06 8 11 mph 1008.8mb 44f 42f
12:00 6 13 mph 1008.9mb 44f 42f
11:54 8 14 mph 1009mb 44f 42f
11:48 8 13 mph 1009.1mb 44f 42f
11:42 9 13 mph 1009.3mb 45f 42f
11:36 9 13 mph 1009.5mb 45f 41f
11:30 8 11 mph 1009.7mb 45f 41f
11:24 7 11 mph 1009.8mb 45f 41f
11:18 7 13 mph 1009.9mb 45f 41f
11:12 8 13 mph 1010mb 45f 41f
11:06 8 11 mph 1010.1mb 45f 40f
11:00 9 13 mph 1010.3mb 45f 40f
10:54 8 11 mph 1010.4mb 45f 40f
10:48 6 13 mph 1010.5mb 45f 40f
10:42 7 10 mph 1010.7mb 45f 39f
10:36 6 10 mph 1010.8mb 45f 39f
10:30 7 13 mph 1011mb 45f 39f
10:24 8 13 mph 1011.1mb 45f 38f
10:18 7 10 mph 1011.2mb 45f 39f
10:12 7 11 mph 1011.4mb 45f 38f
10:06 7 13 mph 1011.5mb 45f 38f
10:00 8 10 mph 1011.6mb 45f 38f
9:54 5 10 mph 1011.7mb 45f 38f
9:48 5 9 mph 1011.8mb 45f 37f
9:42 6 9 mph 1011.9mb 45f 37f
9:36 7 11 mph 1012mb 45f 36f
9:30 6 11 mph 1012mb 45f 36f
9:24 7 11 mph 1012mb 46f 36f
9:18 7 11 mph 1012.1mb 46f 36f
9:12 6 10 mph 1012.1mb 46f 36f
9:06 7 10 mph 1012.2mb 46f 36f
9:00 7 11 mph 1012.3mb 46f 36f
8:54 5 10 mph 1012.3mb 46f 35f
8:48 5 7 mph 1012.3mb 46f 35f
8:42 6 9 mph 1012.4mb 46f 35f
8:36 5 8 mph 1012.4mb 46f 35f
8:30 5 9 mph 1012.4mb 46f 35f
8:24 6 9 mph 1012.4mb 45f 35f
8:18 5 8 mph 1012.5mb 45f 35f
8:12 6 9 mph 1012.5mb 45f 35f
8:06 5 8 mph 1012.4mb 45f 34f
8:00 6 8 mph 1012.4mb 45f 34f
7:54 5 7 mph 1012.3mb 46f 34f
7:48 3 7 mph 1012.3mb 46f 34f
7:42 5 7 mph 1012.2mb 46f 33f
7:36 5 6 mph 1012.1mb 46f 33f
7:30 5 8 mph 1012.2mb 46f 33f
7:24 5 8 mph 1012.4mb 46f 33f
7:18 3 7 mph 1012.5mb 46f 33f
7:12 5 8 mph 1012.5mb 46f 33f
7:06 5 7 mph 1012.5mb 46f 33f
7:00 5 8 mph 1012.5mb 46f 33f
6:54 5 7 mph 1012.6mb 46f 33f
6:48 6 8 mph 1012.7mb 46f 33f
6:42 5 9 mph 1012.7mb 46f 33f
6:36 6 9 mph 1012.8mb 46f 34f
6:30 5 8 mph 1012.8mb 46f 34f
6:24 5 9 mph 1012.7mb 46f 34f
6:18 6 8 mph 1012.8mb 46f 34f
6:12 6 8 mph 1012.8mb 46f 34f
6:06 6 8 mph 1012.9mb 46f 34f
6:00 6 9 mph 1012.9mb 46f 34f
5:54 5 8 mph 1013mb 46f 34f
5:48 6 9 mph 1013.1mb 46f 34f
5:42 8 11 mph 1013.3mb 46f 34f
5:36 8 10 mph 1013.3mb 46f 34f
5:30 6 8 mph 1013.4mb 46f 34f
5:24 6 9 mph 1013.3mb 46f 34f
5:18 5 9 mph 1013.1mb 46f 34f
5:12 6 8 mph 1013mb 46f 34f
5:06 6 8 mph 1013mb 46f 34f
5:00 6 8 mph 1012.9mb 46f 34f
4:54 6 8 mph 1013mb 46f 34f
4:48 6 8 mph 1013mb 46f 34f
4:42 6 7 mph 1012.9mb 46f 34f
4:36 5 6 mph 1012.9mb 46f 34f
4:30 5 6 mph 1012.7mb 46f 34f
4:24 5 6 mph 1012.8mb 46f 34f
4:18 5 7 mph 1012.8mb 46f 34f
4:12 3 6 mph 1013mb 46f 33f
4:06 5 7 mph 1013mb 46f 33f
4:00 3 5 mph 1013mb 46f 33f
3:54 3 6 mph 1013.1mb 46f 33f
3:48 3 6 mph 1013.1mb 46f 33f
3:42 3 5 mph 1013.1mb 46f 33f
3:36 1 3 mph 1013.3mb 46f 33f
3:30 1 5 mph 1013.3mb 46f 33f
3:24 2 3 mph 1013.5mb 46f 33f
3:18 2 5 mph 1013.5mb 46f 33f
3:12 2 5 mph 1013.6mb 46f 33f
3:06 3 6 mph 1013.6mb 46f 33f
3:00 2 3 mph 1013.7mb 46f 33f
2:54 2 5 mph 1013.6mb 46f 33f
2:48 2 5 mph 1013.7mb 46f 33f
2:42 3 6 mph 1013.7mb 46f 33f
2:36 5 6 mph 1013.9mb 46f 33f
2:30 3 6 mph 1013.9mb 46f 33f
2:24 3 6 mph 1013.8mb 46f 33f
2:18 5
mph
1013.8mb 46f 33f
2:12 2 5 mph 1013.9mb 46f 33f
2:06 2 5 mph 1013.7mb 46f 33f
2:00 1 5 mph 1013.7mb 46f 33f
1:54 2 3 mph 1013.8mb 45f 33f
1:48 1 2 mph 1013.8mb 45f -
1:42 1 2 mph 1013.8mb 45f -
1:36  -  2 mph 1013.6mb 45f -
1:30  -  2 mph 1013.7mb 44f 33f
1:24 2 5 mph 1013.8mb 44f 33f
1:18 2 6 mph 1013.9mb 44f 33f
1:12 2 6 mph 1013.9mb 44f 33f
1:06 2 5 mph 1013.9mb 44f 33f
1:00 3 6 mph 1014mb 44f 33f
12:54 5 8 mph 1013.9mb 43f 33f
12:48 5 7 mph 1014mb 43f -
12:42 6 9 mph 1014.2mb 43f -
12:36 6 7 mph 1014.3mb 43f -
12:30 3 6 mph 1014.1mb 43f 34f
12:24 3 6 mph 1013.9mb 43f 34f
12:18 3 5 mph 1013.8mb 43f 34f
12:12 3
mph
1013.7mb 43f 34f
12:06 1 5 mph 1013.5mb 44f 34f
12:00 5 7 mph 1013.9mb 45f 34f
mié 12/07 11:54 6 7 mph 1014mb 45f 35f
11:48 2 3 mph 1013.8mb 45f 35f
11:42 1 3 mph 1013.8mb 45f 35f
11:36 2 3 mph 1014.1mb 45f 35f
11:30 1 3 mph 1014.3mb 45f 35f
11:24 3 5 mph 1014.4mb 45f 35f
11:18 3 5 mph 1014.2mb 45f 35f
11:12 3 5 mph 1014.4mb 45f 35f
11:06 2 3 mph 1014.5mb 45f 35f
11:00 2
mph
1014.5mb 45f 35f
10:54 2 3 mph 1014.6mb 45f 35f
10:48 1
mph
1014.7mb 45f 35f
10:42 2 3 mph 1014.9mb 45f 35f
10:36 2 3 mph 1015.1mb 45f 35f
10:30 2 3 mph 1015mb 45f 35f
10:24 1 3 mph 1015mb 45f 35f
10:18 3 5 mph 1015.1mb 45f 35f
10:12 2 5 mph 1015mb 45f 35f
10:06 3 6 mph 1015.2mb 45f 35f
10:00 6 7 mph 1015.3mb 45f 35f
9:54 5 8 mph 1015.3mb 45f 35f
9:48 7 8 mph 1015.5mb 45f 35f
9:42 7 8 mph 1015.3mb 45f 35f
9:36 7 9 mph 1015.3mb 45f 35f
9:30 8 9 mph 1015.3mb 45f 35f
9:24 7 10 mph 1015.2mb 45f 35f
9:18 8 9 mph 1015.3mb 45f 35f
9:12 8 9 mph 1015.3mb 45f 35f
9:06 6 8 mph 1015.2mb 45f 35f
9:00 7 8 mph 1014.9mb 45f 35f
8:54 7 8 mph 1015mb 45f 35f
8:48 7 8 mph 1015.2mb 45f 35f
8:42 6 7 mph 1015.2mb 45f 35f
8:36 6
mph
1015.3mb 45f 36f
8:30 5 6 mph 1015.4mb 45f 36f
8:24 3 5 mph 1015.3mb 46f 36f
8:18 2 3 mph 1015.3mb 46f 36f
8:12  -  1 mph 1015.4mb 46f 35f
8:06  -  3 mph 1015.4mb 46f 35f
8:00 2 5 mph 1015.5mb 46f 35f
7:54 2
mph
1015.7mb 46f 35f
7:48 1 3 mph 1015.7mb 46f 35f
7:42 2 3 mph 1015.8mb 46f 35f
7:36 3 5 mph 1015.8mb 46f 35f
7:30 3 5 mph 1015.6mb 46f 35f
7:24 3 6 mph 1015.5mb 46f 35f
7:18 3 6 mph 1015.6mb 46f 35f
7:12 3 6 mph 1015.6mb 46f 35f
7:06 2 8 mph 1015.6mb 46f 35f
7:00 5 6 mph 1015.6mb 46f 34f
6:54 3 5 mph 1015.6mb 46f 34f
6:48 2 5 mph 1015.5mb 46f 35f
6:42 3 6 mph 1015.5mb 46f 34f
6:36 5 7 mph 1015.4mb 46f 34f
6:30 5 8 mph 1015.6mb 46f 34f
6:24 2 5 mph 1015.5mb 46f 33f
6:18 3
mph
1015.5mb 46f 34f
6:12 2 3 mph 1015.4mb 46f 34f
6:06 2 3 mph 1015.4mb 46f 34f
6:00 2 3 mph 1015.3mb 46f 34f
5:54 3
mph
1015.2mb 46f 35f
5:48 2 3 mph 1015.1mb 46f 35f
5:42 2
mph
1015.1mb 46f 35f
5:36 2
mph
1014.9mb 46f 35f
5:30 1 3 mph 1015mb 46f 35f
5:24 3
mph
1015.1mb 46f 35f
5:18 1 3 mph 1015.1mb 46f 35f
5:12 2
mph
1015.1mb 46f 35f
5:06 2 5 mph 1015.3mb 46f 35f
5:00 2 3 mph 1015.4mb 46f 35f
4:54 2 3 mph 1015.4mb 46f 35f
4:48 1 5 mph 1015.6mb 46f 35f
4:42 2 3 mph 1015.5mb 46f 35f
4:36 2 5 mph 1015.4mb 46f 35f
4:30 2 5 mph 1015.3mb 46f 35f
4:24 3 5 mph 1015.2mb 46f 35f
4:18 2 3 mph 1015mb 46f 35f
4:12 2 3 mph 1014.9mb 46f 36f
4:06 1 3 mph 1014.7mb 46f 36f
4:00 2 3 mph 1014.8mb 46f 36f
3:54 3 6 mph 1014.8mb 46f 36f
3:48 3 6 mph 1014.8mb 46f 36f
3:42 5 6 mph 1014.8mb 46f 36f
3:36 3 6 mph 1014.8mb 46f 36f
3:30 3 5 mph 1014.7mb 46f 36f
3:24 2
mph
1014.5mb 46f 36f
3:18 1 3 mph 1014.5mb 46f 36f
3:12 2 3 mph 1014.5mb 46f 36f
3:06 3 5 mph 1014.5mb 46f 36f
3:00 5
mph
1014.4mb 46f 36f
2:54 3 5 mph 1014.2mb 46f 36f
2:48 3 5 mph 1014.2mb 46f 36f
2:42 5
mph
1014.3mb 46f 36f
2:36 3 5 mph 1014.2mb 46f 36f
2:30 3
mph
1014.1mb 46f 36f
2:24 2 3 mph 1014.2mb 46f 36f
2:18 1 2 mph 1014.1mb 46f 36f
2:12 1 2 mph 1014.1mb 46f 36f
2:06 2 3 mph 1014.1mb 46f 36f
2:00 2 3 mph 1014.3mb 46f 35f
1:54 1 3 mph 1014.1mb 46f 35f
1:48 2 3 mph 1014.1mb 46f 35f
1:42 2
mph
1014.1mb 46f 35f
1:36 2 3 mph 1014.2mb 46f 35f
1:30 2 3 mph 1014.3mb 46f 35f
1:24 2 3 mph 1014.3mb 46f 35f
1:18 2 3 mph 1014.4mb 46f 35f
1:12 2 3 mph 1014.4mb 45f 35f
1:06 1 3 mph 1014.3mb 44f 35f
1:00 3 5 mph 1014.4mb 44f 34f
12:54 2 3 mph 1014.5mb 44f 34f
12:48 2 3 mph 1014.6mb 43f 34f
12:42 2 3 mph 1014.6mb 43f 34f
12:36 2 3 mph 1014.7mb 43f 34f
12:30 3 5 mph 1014.7mb 43f 34f
12:24 2 5 mph 1014.9mb 43f 34f
12:18 1 2 mph 1015mb 43f 34f
12:12 2 5 mph 1014.9mb 43f 34f
12:06 2 5 mph 1015mb 43f 34f
12:00 5
mph
1014.9mb 43f 34f
11:54 3 5 mph 1015mb 43f 34f
11:48 3 5 mph 1015.2mb 43f 33f
11:42 3 5 mph 1015.4mb 43f 33f
11:36 5 6 mph 1015.5mb 44f 33f
11:30 5 6 mph 1015.4mb 44f 33f
11:24 3 6 mph 1015.5mb 44f 33f
11:18 5 8 mph 1015.6mb 44f 33f
11:12 6 8 mph 1015.6mb 44f 33f
11:06 7 9 mph 1015.6mb 44f 33f
11:00 7 8 mph 1015.7mb 44f 33f
10:54 7 9 mph 1015.8mb 44f 33f
10:48 6 8 mph 1015.8mb 44f 33f
10:42 7 8 mph 1015.9mb 44f 33f
10:36 6 9 mph 1016mb 44f 33f
10:30 7 9 mph 1016mb 44f 32f
10:24 7 9 mph 1016mb 44f 32f
10:18 8 10 mph 1016mb 44f 32f
10:12 7 10 mph 1016mb 44f 32f
10:06 9 10 mph 1016.1mb 44f 32f
10:00 8 9 mph 1016.2mb 44f 31f
9:54 8 10 mph 1016.3mb 44f 31f
9:48 7 10 mph 1016.2mb 44f 31f
9:42 8 10 mph 1016.1mb 45f 31f
9:36 6 9 mph 1016.2mb 45f 31f
9:30 8 9 mph 1016.2mb 45f 31f
9:24 7 9 mph 1016.2mb 45f 31f
9:18 9 11 mph 1016.2mb 45f 30f
9:12 8 9 mph 1016.2mb 45f 30f
9:06 7 9 mph 1016.4mb 45f 30f
9:00 7 9 mph 1016.4mb 45f 30f
8:54 8 9 mph 1016.3mb 45f 30f
8:48 6 10 mph 1016.3mb 45f 30f
8:42 8 10 mph 1016.2mb 45f 30f
8:36 8 10 mph 1016.1mb 45f 30f
8:30 8 10 mph 1016.1mb 45f 30f
8:24 7 8 mph 1016.1mb 45f 30f
8:18 7 8 mph 1016mb 45f 30f
8:12 7 9 mph 1015.9mb 45f 29f
8:06 6 8 mph 1015.9mb 45f 29f
8:00 6 9 mph 1015.8mb 45f 29f
7:54 7 10 mph 1015.6mb 45f 29f
7:48 7 10 mph 1015.6mb 45f 29f
7:42 9 10 mph 1015.5mb 45f 29f
7:36 8 9 mph 1015.5mb 45f 29f
7:30 7 9 mph 1015.5mb 45f 29f
7:24 7 9 mph 1015.5mb 45f 30f
7:18 7 11 mph 1015.4mb 45f 30f
7:12 7 10 mph 1015.3mb 45f 30f
7:06 8 11 mph 1015.1mb 45f 30f
7:00 8 13 mph 1015mb 45f 30f
6:54 9 11 mph 1014.9mb 45f 30f
6:48 9 11 mph 1014.8mb 45f 31f
6:42 9 11 mph 1014.8mb 45f 31f
6:36 9 11 mph 1014.9mb 45f 31f
6:30 9 11 mph 1014.9mb 45f 31f
6:24 9 13 mph 1015mb 45f 31f
6:18 8 10 mph 1015mb 45f 31f